createdAt,value
2019-01-31T00:01:33.489Z,76.35
2019-01-31T00:04:25.182Z,76.29
2019-01-31T00:07:16.607Z,76.62
2019-01-31T00:09:52.874Z,76.84
2019-01-31T00:13:00.989Z,76.92
2019-01-31T00:15:37.510Z,76.53
2019-01-31T00:18:25.888Z,76.75
2019-01-31T00:21:05.266Z,76.78
2019-01-31T00:23:53.644Z,76.83
2019-01-31T00:26:53.898Z,76.69
2019-01-31T00:29:30.717Z,76.50
2019-01-31T00:32:20.662Z,76.46
2019-01-31T00:35:09.159Z,76.68
2019-01-31T00:37:42.738Z,76.89
2019-01-31T00:40:18.946Z,76.84
2019-01-31T00:43:02.708Z,76.62
2019-01-31T00:45:58.154Z,76.68
2019-01-31T00:48:57.497Z,76.47
2019-01-31T00:51:52.625Z,76.38
2019-01-31T00:54:32.109Z,76.61
2019-01-31T00:57:14.294Z,76.68
2019-01-31T00:59:52.544Z,76.71
2019-01-31T01:02:33.617Z,76.32
2019-01-31T01:05:26.779Z,76.03
2019-01-31T01:08:07.668Z,75.87
2019-01-31T01:10:59.228Z,76.13
2019-01-31T01:13:34.361Z,76.00
2019-01-31T01:16:15.371Z,75.75
2019-01-31T01:18:53.475Z,76.32
2019-01-31T01:21:40.523Z,76.16
2019-01-31T01:24:16.732Z,75.80
2019-01-31T01:27:05.865Z,75.93
2019-01-31T01:29:50.345Z,76.02
2019-01-31T01:32:44.462Z,75.99
2019-01-31T01:35:31.502Z,75.80
2019-01-31T01:38:13.539Z,75.99
2019-01-31T01:41:11.458Z,76.31
2019-01-31T01:44:03.195Z,76.47
2019-01-31T01:46:39.757Z,76.62
2019-01-31T01:49:20.548Z,77.08
2019-01-31T01:52:11.921Z,77.28
2019-01-31T01:54:47.682Z,77.50
2019-01-31T01:57:30.870Z,77.62
2019-01-31T02:00:36.029Z,78.16
2019-01-31T02:03:09.637Z,78.04
2019-01-31T02:05:46.070Z,78.10
2019-01-31T02:08:42.203Z,78.44
2019-01-31T02:11:40.938Z,78.28
2019-01-31T02:14:32.355Z,78.32
2019-01-31T02:17:14.472Z,78.62
2019-01-31T02:19:57.104Z,78.40
2019-01-31T02:22:40.646Z,78.81
2019-01-31T02:25:24.266Z,78.38
2019-01-31T02:28:16.509Z,78.53
2019-01-31T02:30:51.295Z,78.94
2019-01-31T02:33:39.993Z,78.48
2019-01-31T02:36:18.736Z,78.69
2019-01-31T02:39:01.055Z,78.52
2019-01-31T02:41:52.547Z,77.98
2019-01-31T02:44:33.741Z,77.70
2019-01-31T02:47:25.518Z,77.46
2019-01-31T02:50:21.926Z,77.12
2019-01-31T02:53:10.073Z,76.70
2019-01-31T02:55:49.463Z,76.70
2019-01-31T02:58:35.085Z,76.49
2019-01-31T03:01:35.646Z,76.48
2019-01-31T03:04:15.040Z,76.72
2019-01-31T03:07:19.936Z,77.34
2019-01-31T03:10:00.583Z,77.06
2019-01-31T03:12:56.595Z,77.21
2019-01-31T03:15:30.117Z,76.36
2019-01-31T03:18:03.728Z,76.69
2019-01-31T03:20:42.985Z,76.98
2019-01-31T03:23:26.253Z,77.24
2019-01-31T03:26:05.635Z,77.64
2019-01-31T03:28:43.931Z,77.72
2019-01-31T03:31:21.056Z,77.42
2019-01-31T03:34:01.361Z,78.13
2019-01-31T03:36:34.861Z,78.14
2019-01-31T03:39:11.252Z,77.20
2019-01-31T03:41:47.391Z,77.64
2019-01-31T03:44:32.440Z,78.11
2019-01-31T03:47:22.140Z,78.52
2019-01-31T03:50:01.634Z,78.08
2019-01-31T03:52:53.243Z,77.34
2019-01-31T03:55:43.623Z,77.09
2019-01-31T03:58:35.018Z,77.44
2019-01-31T04:01:23.637Z,77.42
2019-01-31T04:04:09.075Z,78.14
2019-01-31T04:06:39.541Z,78.43
2019-01-31T04:09:10.951Z,78.14
2019-01-31T04:11:41.211Z,79.03
2019-01-31T04:14:12.621Z,78.72
2019-01-31T04:16:44.094Z,78.72
2019-01-31T04:19:15.529Z,77.97
2019-01-31T04:21:47.000Z,78.23
2019-01-31T04:24:18.436Z,78.58
2019-01-31T04:26:49.903Z,78.83
2019-01-31T04:29:21.948Z,78.37
2019-01-31T04:31:53.416Z,78.69
2019-01-31T04:34:24.854Z,78.78
2019-01-31T04:36:56.349Z,78.45
2019-01-31T04:39:27.748Z,78.49
2019-01-31T04:41:58.014Z,78.30
2019-01-31T04:44:29.428Z,78.50
2019-01-31T04:47:00.895Z,78.61
2019-01-31T04:49:32.330Z,78.10
2019-01-31T04:52:03.799Z,78.53
2019-01-31T04:54:35.226Z,78.47
2019-01-31T04:57:05.497Z,78.47
2019-01-31T04:59:36.904Z,78.65
2019-01-31T05:02:08.376Z,76.99
2019-01-31T05:04:39.802Z,76.30
2019-01-31T05:07:10.067Z,74.81
2019-01-31T05:09:41.483Z,75.41
2019-01-31T05:12:13.131Z,75.81
2019-01-31T05:15:02.189Z,75.61
2019-01-31T05:17:45.356Z,75.67
2019-01-31T05:20:18.112Z,75.96
2019-01-31T05:22:49.475Z,78.40
2019-01-31T05:25:37.222Z,78.12
2019-01-31T05:28:07.770Z,77.29
2019-01-31T05:30:41.944Z,76.70
2019-01-31T05:33:13.405Z,75.64
2019-01-31T05:35:44.839Z,76.77
2019-01-31T05:38:17.559Z,77.00
2019-01-31T05:40:55.728Z,76.21
2019-01-31T05:43:21.672Z,75.95
2019-01-31T05:45:54.026Z,75.50
2019-01-31T05:48:24.574Z,75.68
2019-01-31T05:50:56.014Z,76.27
2019-01-31T05:53:27.498Z,76.45
2019-01-31T05:55:58.930Z,76.40
2019-01-31T05:58:30.695Z,76.46
2019-01-31T06:01:03.053Z,76.67
2019-01-31T06:03:35.448Z,76.10
2019-01-31T06:06:06.871Z,75.84
2019-01-31T06:08:40.892Z,76.06
2019-01-31T06:11:14.072Z,76.50
2019-01-31T06:13:45.565Z,76.90
2019-01-31T06:16:17.019Z,76.16
2019-01-31T06:18:48.448Z,75.31
2019-01-31T06:21:19.904Z,75.18
2019-01-31T06:23:50.210Z,74.96
2019-01-31T06:26:20.654Z,74.01
2019-01-31T06:28:52.123Z,73.93
2019-01-31T06:31:23.271Z,75.68
2019-01-31T06:33:54.711Z,75.91
2019-01-31T06:36:27.050Z,77.70
2019-01-31T06:38:58.519Z,76.52
2019-01-31T06:41:29.946Z,77.87
2019-01-31T06:44:01.420Z,77.92
2019-01-31T06:46:32.863Z,78.46
2019-01-31T06:49:04.322Z,77.84
2019-01-31T06:51:35.755Z,78.10
2019-01-31T06:54:07.805Z,77.99
2019-01-31T06:56:38.364Z,77.56
2019-01-31T06:59:09.823Z,77.76
2019-01-31T07:01:41.252Z,77.34
2019-01-31T07:04:12.717Z,77.62
2019-01-31T07:06:44.153Z,77.55
2019-01-31T07:09:15.626Z,77.10
2019-01-31T07:11:47.049Z,76.43
2019-01-31T07:14:17.332Z,75.10
2019-01-31T07:16:48.738Z,76.48
2019-01-31T07:19:20.216Z,75.81
2019-01-31T07:21:51.947Z,75.87
2019-01-31T07:24:22.232Z,75.77
2019-01-31T07:26:52.492Z,75.68
2019-01-31T07:29:22.766Z,74.80
2019-01-31T07:31:54.078Z,74.59
2019-01-31T07:34:24.361Z,74.03
2019-01-31T07:36:54.607Z,73.96
2019-01-31T07:39:24.898Z,74.24
2019-01-31T07:41:55.145Z,73.38
2019-01-31T07:44:25.426Z,74.29
2019-01-31T07:46:55.700Z,73.65
2019-01-31T07:49:25.978Z,74.11
2019-01-31T07:51:56.219Z,71.29
2019-01-31T07:54:26.485Z,72.85
2019-01-31T07:56:56.752Z,71.66
2019-01-31T07:59:27.029Z,71.73
2019-01-31T08:01:57.292Z,71.41
2019-01-31T08:04:27.565Z,71.83
2019-01-31T08:06:57.826Z,72.34
2019-01-31T08:09:28.098Z,71.83
2019-01-31T08:11:58.364Z,70.37
2019-01-31T08:14:28.662Z,72.42
2019-01-31T08:16:58.921Z,70.67
2019-01-31T08:19:29.223Z,71.39
2019-01-31T08:21:59.462Z,70.80
2019-01-31T08:24:29.826Z,68.94
2019-01-31T08:27:01.167Z,69.84
2019-01-31T08:29:31.511Z,69.29
2019-01-31T08:32:01.771Z,69.91
2019-01-31T08:34:33.035Z,69.12
2019-01-31T08:37:03.295Z,69.86
2019-01-31T08:39:33.569Z,68.38
2019-01-31T08:42:04.123Z,68.92
2019-01-31T08:44:34.637Z,68.93
2019-01-31T08:47:06.350Z,67.86
2019-01-31T08:49:36.633Z,69.26
2019-01-31T08:52:07.949Z,67.70
2019-01-31T08:54:38.213Z,68.59
2019-01-31T08:57:08.458Z,67.83
2019-01-31T08:59:38.729Z,67.99
2019-01-31T09:02:08.978Z,66.53
2019-01-31T09:04:39.247Z,66.11
2019-01-31T09:07:09.499Z,65.42
2019-01-31T09:09:40.839Z,65.50
2019-01-31T09:12:15.419Z,64.35
2019-01-31T09:14:44.334Z,64.00
2019-01-31T09:17:14.587Z,64.00
2019-01-31T09:19:45.134Z,64.30
2019-01-31T09:22:18.630Z,63.12
2019-01-31T09:24:52.152Z,63.12
2019-01-31T09:27:52.434Z,63.51
2019-01-31T09:30:28.660Z,63.51
2019-01-31T09:33:05.678Z,63.58
2019-01-31T09:35:42.054Z,63.14
2019-01-31T09:38:48.517Z,62.89
2019-01-31T09:41:27.606Z,63.29
2019-01-31T09:44:18.532Z,63.06
2019-01-31T09:47:08.468Z,62.83
2019-01-31T09:49:59.560Z,62.85
2019-01-31T09:52:48.204Z,61.91
2019-01-31T09:55:38.244Z,62.13
2019-01-31T09:58:17.610Z,61.83
2019-01-31T10:01:11.764Z,61.05
2019-01-31T10:03:47.810Z,61.23
2019-01-31T10:06:36.302Z,60.99
2019-01-31T10:09:12.494Z,61.08
2019-01-31T10:12:06.846Z,60.70
2019-01-31T10:14:40.411Z,60.14
2019-01-31T10:17:46.646Z,60.82
2019-01-31T10:20:36.198Z,60.32
2019-01-31T10:23:11.291Z,60.86
2019-01-31T10:26:02.836Z,60.88
2019-01-31T10:29:02.254Z,61.48
2019-01-31T10:31:35.788Z,62.26
2019-01-31T10:34:24.567Z,62.17
2019-01-31T10:37:07.004Z,61.96
2019-01-31T10:39:52.585Z,61.96
2019-01-31T10:42:51.803Z,61.02
2019-01-31T10:45:34.332Z,61.02
2019-01-31T10:48:10.532Z,60.82
2019-01-31T10:51:02.333Z,61.58
2019-01-31T10:53:47.627Z,61.03
2019-01-31T10:56:46.200Z,60.81
2019-01-31T10:59:31.520Z,60.63
2019-01-31T11:02:31.142Z,60.58
2019-01-31T11:05:22.575Z,60.82
2019-01-31T11:08:04.903Z,59.90
2019-01-31T11:10:56.170Z,60.42
2019-01-31T11:13:32.696Z,60.42
2019-01-31T11:16:41.068Z,60.71
2019-01-31T11:19:23.370Z,60.84
2019-01-31T11:22:17.859Z,60.63
2019-01-31T11:25:00.204Z,60.25
2019-01-31T11:27:54.208Z,60.22
2019-01-31T11:30:39.414Z,59.73
2019-01-31T11:33:12.940Z,59.13
2019-01-31T11:36:05.579Z,59.50
2019-01-31T11:39:01.828Z,59.62
2019-01-31T11:41:48.956Z,58.77
2019-01-31T11:44:48.114Z,58.88
2019-01-31T11:47:33.393Z,58.70
2019-01-31T11:50:29.527Z,58.60
2019-01-31T11:53:09.033Z,58.60
2019-01-31T11:55:48.159Z,58.80
2019-01-31T11:58:37.306Z,59.26
2019-01-31T12:01:08.246Z,58.03
2019-01-31T12:03:38.502Z,56.64
2019-01-31T12:06:08.769Z,57.04
2019-01-31T12:08:39.018Z,57.85
2019-01-31T12:11:09.312Z,57.76
2019-01-31T12:13:40.733Z,56.00
2019-01-31T12:16:10.994Z,56.40
2019-01-31T12:18:43.005Z,56.78
2019-01-31T12:21:13.281Z,56.72
2019-01-31T12:23:43.797Z,56.64
2019-01-31T12:26:14.157Z,57.08
2019-01-31T12:28:44.400Z,57.23
2019-01-31T12:31:14.669Z,56.73
2019-01-31T12:33:44.924Z,56.86
2019-01-31T12:36:16.089Z,57.59
2019-01-31T12:38:46.340Z,57.34
2019-01-31T12:41:16.603Z,57.25
2019-01-31T12:43:46.916Z,56.85
2019-01-31T12:46:17.184Z,56.00
2019-01-31T12:48:48.500Z,56.38
2019-01-31T12:51:19.944Z,56.61
2019-01-31T12:53:52.884Z,57.00
2019-01-31T12:56:23.163Z,56.32
2019-01-31T12:58:53.409Z,55.91
2019-01-31T13:01:23.684Z,55.19
2019-01-31T13:03:53.926Z,54.66
2019-01-31T13:06:24.198Z,54.71
2019-01-31T13:08:54.817Z,53.82
2019-01-31T13:11:25.088Z,53.61
2019-01-31T13:13:55.329Z,53.57
2019-01-31T13:16:25.587Z,54.16
2019-01-31T13:18:56.039Z,53.69
2019-01-31T13:21:35.821Z,53.87
2019-01-31T13:24:07.992Z,54.74
2019-01-31T13:26:39.890Z,56.14
2019-01-31T13:29:10.142Z,56.86
2019-01-31T13:31:40.408Z,57.34
2019-01-31T13:34:10.658Z,57.65
2019-01-31T13:36:41.723Z,57.96
2019-01-31T13:39:13.619Z,57.99
2019-01-31T13:41:43.892Z,58.05
2019-01-31T13:44:15.896Z,58.14
2019-01-31T13:47:05.397Z,58.13
2019-01-31T13:49:38.334Z,58.12
2019-01-31T13:52:09.315Z,58.83
2019-01-31T13:54:39.663Z,59.28
2019-01-31T13:57:20.554Z,59.41
2019-01-31T13:59:57.936Z,59.50
2019-01-31T14:02:31.935Z,59.54
2019-01-31T14:05:02.198Z,59.63
2019-01-31T14:07:33.630Z,59.47
2019-01-31T14:10:05.057Z,59.74
2019-01-31T14:12:37.839Z,60.09
2019-01-31T14:15:15.136Z,60.11
2019-01-31T14:17:47.933Z,60.11
2019-01-31T14:20:25.020Z,60.37
2019-01-31T14:22:55.289Z,60.58
2019-01-31T14:25:27.163Z,60.83
2019-01-31T14:27:57.427Z,61.14
2019-01-31T14:30:35.705Z,61.34
2019-01-31T14:33:09.152Z,61.55
2019-01-31T14:35:39.396Z,61.62
2019-01-31T14:38:10.597Z,61.64
2019-01-31T14:40:40.848Z,61.58
2019-01-31T14:43:12.003Z,61.86
2019-01-31T14:45:42.258Z,62.01
2019-01-31T14:48:12.625Z,62.21
2019-01-31T14:50:42.854Z,62.45
2019-01-31T14:53:14.314Z,62.61
2019-01-31T14:55:44.575Z,62.57
2019-01-31T14:58:14.844Z,62.60
2019-01-31T15:00:50.714Z,62.94
2019-01-31T15:03:28.542Z,63.13
2019-01-31T15:05:59.752Z,63.33
2019-01-31T15:08:32.974Z,63.85
2019-01-31T15:11:04.383Z,64.15
2019-01-31T15:13:35.865Z,64.88
2019-01-31T15:16:07.295Z,66.19
2019-01-31T15:18:40.262Z,66.41
2019-01-31T15:21:11.721Z,66.70
2019-01-31T15:23:43.191Z,66.80
2019-01-31T15:26:16.586Z,66.82
2019-01-31T15:28:46.865Z,67.76
2019-01-31T15:31:18.965Z,67.76
2019-01-31T15:33:49.250Z,68.18
2019-01-31T15:36:19.597Z,68.45
2019-01-31T15:38:50.659Z,69.16
2019-01-31T15:41:20.982Z,69.05
2019-01-31T15:43:51.269Z,70.00
2019-01-31T15:46:21.520Z,69.40
2019-01-31T15:48:51.798Z,69.83
2019-01-31T15:51:23.006Z,69.97
2019-01-31T15:53:54.453Z,70.66
2019-01-31T15:56:26.158Z,71.11
2019-01-31T15:58:56.820Z,71.44
2019-01-31T16:01:27.288Z,71.72
2019-01-31T16:04:00.867Z,72.10
2019-01-31T16:06:30.469Z,72.28
2019-01-31T16:09:00.748Z,72.23
2019-01-31T16:11:32.779Z,72.94
2019-01-31T16:14:03.078Z,73.13
2019-01-31T16:16:33.307Z,73.02
2019-01-31T16:19:03.595Z,73.20
2019-01-31T16:21:33.846Z,72.97
2019-01-31T16:24:04.112Z,72.87
2019-01-31T16:26:35.337Z,73.52
2019-01-31T16:29:05.611Z,73.05
2019-01-31T16:31:35.869Z,73.24
2019-01-31T16:34:06.160Z,73.93
2019-01-31T16:36:36.521Z,74.41
2019-01-31T16:39:13.531Z,74.51
2019-01-31T16:41:43.832Z,74.50
2019-01-31T16:44:14.876Z,74.10
2019-01-31T16:46:46.329Z,74.32
2019-01-31T16:49:18.721Z,73.99
2019-01-31T16:51:50.143Z,74.28
2019-01-31T16:54:21.610Z,74.31
2019-01-31T16:56:53.061Z,73.33
2019-01-31T16:59:28.499Z,73.87
2019-01-31T17:02:00.359Z,74.19
2019-01-31T17:04:30.929Z,74.22
2019-01-31T17:07:02.836Z,74.61
2019-01-31T17:09:33.130Z,74.69
2019-01-31T17:12:03.388Z,74.54
2019-01-31T17:14:33.678Z,74.77
2019-01-31T17:17:04.048Z,74.65
2019-01-31T17:19:36.755Z,75.02
2019-01-31T17:22:07.911Z,75.13
2019-01-31T17:24:38.181Z,75.24
2019-01-31T17:27:08.533Z,75.30
2019-01-31T17:29:38.860Z,75.74
2019-01-31T17:32:10.645Z,75.32
2019-01-31T17:34:40.998Z,75.25
2019-01-31T17:37:11.287Z,75.46
2019-01-31T17:39:42.511Z,76.19
2019-01-31T17:42:14.166Z,76.06
2019-01-31T17:44:44.476Z,76.25
2019-01-31T17:47:14.796Z,75.95
2019-01-31T17:49:48.389Z,75.26
2019-01-31T17:52:17.557Z,74.69
2019-01-31T17:54:47.843Z,75.17
2019-01-31T17:57:18.389Z,75.61
2019-01-31T17:59:48.662Z,75.25
2019-01-31T18:02:18.919Z,74.52
2019-01-31T18:04:51.134Z,74.06
2019-01-31T18:07:21.418Z,74.08
2019-01-31T18:09:51.713Z,74.02
2019-01-31T18:12:22.212Z,73.91
2019-01-31T18:14:53.607Z,74.27
2019-01-31T18:17:23.959Z,74.47
2019-01-31T18:19:58.167Z,74.49
2019-01-31T18:22:30.316Z,74.44
2019-01-31T18:25:06.353Z,74.09
2019-01-31T18:27:49.433Z,74.09
2019-01-31T18:30:29.651Z,73.97
2019-01-31T18:33:02.421Z,73.63
2019-01-31T18:35:41.652Z,73.69
2019-01-31T18:38:12.014Z,73.86
2019-01-31T18:40:42.553Z,74.18
2019-01-31T18:43:17.941Z,73.75
2019-01-31T18:45:53.354Z,73.83
2019-01-31T18:48:27.855Z,73.75
2019-01-31T18:51:04.701Z,73.98
2019-01-31T18:53:37.211Z,74.01
2019-01-31T18:56:15.313Z,74.34
2019-01-31T18:58:49.566Z,74.56
2019-01-31T19:01:19.966Z,74.79
2019-01-31T19:03:53.202Z,74.92
2019-01-31T19:06:26.573Z,74.76
2019-01-31T19:08:56.858Z,75.24
2019-01-31T19:11:27.578Z,74.82
2019-01-31T19:13:59.529Z,74.94
2019-01-31T19:16:29.886Z,74.82
2019-01-31T19:19:00.209Z,74.29
2019-01-31T19:21:30.665Z,75.33
2019-01-31T19:24:02.371Z,75.98
2019-01-31T19:26:34.006Z,75.25
2019-01-31T19:29:04.608Z,75.02
2019-01-31T19:31:34.999Z,75.87
2019-01-31T19:34:05.727Z,75.65
2019-01-31T19:36:40.311Z,75.77
2019-01-31T19:39:14.542Z,75.57
2019-01-31T19:41:49.387Z,75.99
2019-01-31T19:44:19.855Z,75.93
2019-01-31T19:46:53.242Z,76.05
2019-01-31T19:49:24.676Z,76.11
2019-01-31T19:52:01.932Z,75.93
2019-01-31T19:54:34.560Z,76.42
2019-01-31T19:57:12.445Z,75.87
2019-01-31T19:59:46.471Z,76.26
2019-01-31T20:02:20.875Z,76.82
2019-01-31T20:04:56.879Z,76.78
2019-01-31T20:07:30.708Z,77.10
2019-01-31T20:10:02.164Z,77.37
2019-01-31T20:12:34.692Z,77.65
2019-01-31T20:15:10.787Z,77.17
2019-01-31T20:17:42.825Z,76.86
2019-01-31T20:20:17.765Z,75.77
2019-01-31T20:22:50.778Z,75.71
2019-01-31T20:25:21.331Z,76.24
2019-01-31T20:27:55.139Z,76.18
2019-01-31T20:30:30.913Z,76.65
2019-01-31T20:33:04.440Z,76.40
2019-01-31T20:35:34.723Z,76.15
2019-01-31T20:38:08.263Z,76.00
2019-01-31T20:40:42.245Z,77.07
2019-01-31T20:43:20.959Z,77.42
2019-01-31T20:45:53.586Z,77.56
2019-01-31T20:48:28.098Z,77.32
2019-01-31T20:51:05.732Z,76.35
2019-01-31T20:53:36.031Z,75.97
2019-01-31T20:56:08.385Z,76.16
2019-01-31T20:58:44.774Z,76.22
2019-01-31T21:01:19.418Z,76.80
2019-01-31T21:03:51.051Z,76.76
2019-01-31T21:06:24.081Z,76.82
2019-01-31T21:08:57.770Z,76.36
2019-01-31T21:11:30.757Z,76.82
2019-01-31T21:14:06.274Z,77.36
2019-01-31T21:16:35.649Z,77.71
2019-01-31T21:19:05.935Z,77.07
2019-01-31T21:21:37.844Z,76.12
2019-01-31T21:24:08.112Z,76.00
2019-01-31T21:26:38.387Z,75.87
2019-01-31T21:29:09.821Z,75.32
2019-01-31T21:31:41.959Z,75.63
2019-01-31T21:34:18.514Z,75.22
2019-01-31T21:37:00.445Z,75.99
2019-01-31T21:39:36.855Z,76.38
2019-01-31T21:42:16.780Z,75.92
2019-01-31T21:44:48.513Z,76.54
2019-01-31T21:47:19.681Z,76.55
2019-01-31T21:50:07.329Z,75.98
2019-01-31T21:52:46.918Z,75.92
2019-01-31T21:55:17.191Z,75.58
2019-01-31T21:57:47.446Z,75.94
2019-01-31T22:00:23.328Z,75.95
2019-01-31T22:02:54.716Z,75.92
2019-01-31T22:05:25.041Z,76.39
2019-01-31T22:07:56.064Z,75.93
2019-01-31T22:10:26.412Z,75.05
2019-01-31T22:12:56.649Z,74.38
2019-01-31T22:15:32.614Z,74.69
2019-01-31T22:18:04.347Z,75.22
2019-01-31T22:20:36.278Z,75.48
2019-01-31T22:23:06.545Z,76.31
2019-01-31T22:25:36.851Z,75.21
2019-01-31T22:28:07.099Z,75.58
2019-01-31T22:30:38.343Z,75.19
2019-01-31T22:33:08.624Z,75.75
2019-01-31T22:35:38.921Z,75.86
2019-01-31T22:38:09.173Z,75.80
2019-01-31T22:40:39.463Z,76.04
2019-01-31T22:43:09.718Z,76.24
2019-01-31T22:45:39.997Z,76.02
2019-01-31T22:48:10.247Z,77.23
2019-01-31T22:50:40.527Z,76.77
2019-01-31T22:53:10.785Z,76.53
2019-01-31T22:55:41.082Z,77.06
2019-01-31T22:58:11.344Z,76.57
2019-01-31T23:01:01.266Z,75.80
2019-01-31T23:03:32.595Z,75.32
2019-01-31T23:06:02.861Z,75.99
2019-01-31T23:08:33.128Z,75.79
2019-01-31T23:11:03.409Z,76.04
2019-01-31T23:13:33.665Z,75.98
2019-01-31T23:16:04.309Z,75.69
2019-01-31T23:18:34.564Z,75.42
2019-01-31T23:21:06.378Z,75.36
2019-01-31T23:23:36.643Z,74.82
2019-01-31T23:26:07.082Z,74.67
2019-01-31T23:28:37.333Z,74.70
2019-01-31T23:31:07.606Z,74.48
2019-01-31T23:33:40.780Z,75.12
2019-01-31T23:36:09.844Z,74.99
2019-01-31T23:38:40.099Z,74.77
2019-01-31T23:41:10.376Z,75.20
2019-01-31T23:43:40.622Z,74.93
2019-01-31T23:46:11.830Z,76.04
2019-01-31T23:48:43.350Z,76.39
2019-01-31T23:51:13.657Z,77.19
2019-01-31T23:53:43.903Z,76.29
2019-01-31T23:56:14.171Z,76.51
2019-01-31T23:58:44.426Z,75.30
